sensor_id;sensor_type;location;lat;lon;timestamp;pressure;altitude;pressure_sealevel;temperature;humidity
54306;BME280;66145;45.188;5.712;2023-02-10T00:00:20;101123.75;;;14.47;44.46
54306;BME280;66145;45.188;5.712;2023-02-10T00:02:46;101110.88;;;14.42;44.53
54306;BME280;66145;45.188;5.712;2023-02-10T00:05:11;101126.00;;;14.50;44.50
54306;BME280;66145;45.188;5.712;2023-02-10T00:07:37;101105.22;;;14.32;44.44
54306;BME280;66145;45.188;5.712;2023-02-10T00:10:02;101049.75;;;13.97;44.38
54306;BME280;66145;45.188;5.712;2023-02-10T00:12:28;101069.25;;;14.06;44.61
54306;BME280;66145;45.188;5.712;2023-02-10T00:14:53;101103.78;;;14.29;44.59
54306;BME280;66145;45.188;5.712;2023-02-10T00:17:18;101106.88;;;14.33;44.56
54306;BME280;66145;45.188;5.712;2023-02-10T00:19:44;101102.72;;;14.30;44.26
54306;BME280;66145;45.188;5.712;2023-02-10T00:22:09;101101.06;;;14.29;44.37
54306;BME280;66145;45.188;5.712;2023-02-10T00:24:35;101113.13;;;14.33;44.40
54306;BME280;66145;45.188;5.712;2023-02-10T00:27:00;101103.78;;;14.29;44.44
54306;BME280;66145;45.188;5.712;2023-02-10T00:29:26;101106.50;;;14.29;44.53
54306;BME280;66145;45.188;5.712;2023-02-10T00:31:51;101134.16;;;14.50;44.45
54306;BME280;66145;45.188;5.712;2023-02-10T00:34:18;101100.25;;;14.28;44.53
54306;BME280;66145;45.188;5.712;2023-02-10T00:36:43;101126.13;;;14.43;44.64
54306;BME280;66145;45.188;5.712;2023-02-10T00:39:15;101108.75;;;14.32;44.58
54306;BME280;66145;45.188;5.712;2023-02-10T00:41:41;101104.97;;;14.33;44.55
54306;BME280;66145;45.188;5.712;2023-02-10T00:44:06;101106.63;;;14.34;44.37
54306;BME280;66145;45.188;5.712;2023-02-10T00:46:32;101112.53;;;14.31;44.34
54306;BME280;66145;45.188;5.712;2023-02-10T00:48:57;101108.75;;;14.32;44.38
54306;BME280;66145;45.188;5.712;2023-02-10T00:51:23;101137.47;;;14.52;44.54
54306;BME280;66145;45.188;5.712;2023-02-10T00:53:48;101091.22;;;14.28;44.28
54306;BME280;66145;45.188;5.712;2023-02-10T00:56:18;101118.56;;;14.45;44.09
54306;BME280;66145;45.188;5.712;2023-02-10T00:58:44;101131.22;;;14.51;44.54
54306;BME280;66145;45.188;5.712;2023-02-10T01:01:10;101140.69;;;14.49;44.46
54306;BME280;66145;45.188;5.712;2023-02-10T01:03:36;101087.09;;;14.25;44.36
54306;BME280;66145;45.188;5.712;2023-02-10T01:06:02;101111.72;;;14.42;44.49
54306;BME280;66145;45.188;5.712;2023-02-10T01:08:28;101101.41;;;14.33;44.25
54306;BME280;66145;45.188;5.712;2023-02-10T01:11:04;101113.38;;;14.32;44.19
54306;BME280;66145;45.188;5.712;2023-02-10T01:13:30;101109.00;;;14.30;44.32
54306;BME280;66145;45.188;5.712;2023-02-10T01:15:56;101095.03;;;14.27;44.46
54306;BME280;66145;45.188;5.712;2023-02-10T01:18:21;101064.41;;;14.08;44.45
54306;BME280;66145;45.188;5.712;2023-02-10T01:20:47;101086.03;;;14.14;44.35
54306;BME280;66145;45.188;5.712;2023-02-10T01:23:12;101137.16;;;14.48;44.48
54306;BME280;66145;45.188;5.712;2023-02-10T01:25:38;101104.84;;;14.28;44.37
54306;BME280;66145;45.188;5.712;2023-02-10T01:28:04;101140.47;;;14.50;44.15
54306;BME280;66145;45.188;5.712;2023-02-10T01:30:29;101150.75;;;14.48;44.23
54306;BME280;66145;45.188;5.712;2023-02-10T01:32:55;101055.44;;;13.95;44.43
54306;BME280;66145;45.188;5.712;2023-02-10T01:35:21;101144.72;;;14.46;44.35
54306;BME280;66145;45.188;5.712;2023-02-10T01:37:46;101101.44;;;14.21;44.64
54306;BME280;66145;45.188;5.712;2023-02-10T01:40:12;101131.72;;;14.36;44.34
54306;BME280;66145;45.188;5.712;2023-02-10T01:42:37;101122.00;;;14.28;44.26
54306;BME280;66145;45.188;5.712;2023-02-10T01:47:36;101109.13;;;14.24;44.49
54306;BME280;66145;45.188;5.712;2023-02-10T01:50:02;101127.94;;;14.37;44.43
54306;BME280;66145;45.188;5.712;2023-02-10T01:52:28;101152.41;;;14.49;44.36
54306;BME280;66145;45.188;5.712;2023-02-10T01:55:00;101140.69;;;14.49;44.22
54306;BME280;66145;45.188;5.712;2023-02-10T01:57:29;101135.63;;;14.40;44.42
54306;BME280;66145;45.188;5.712;2023-02-10T01:59:55;101149.69;;;14.49;44.30
54306;BME280;66145;45.188;5.712;2023-02-10T02:02:21;101140.59;;;14.43;44.41
54306;BME280;66145;45.188;5.712;2023-02-10T02:04:49;101109.47;;;14.27;44.34
54306;BME280;66145;45.188;5.712;2023-02-10T02:07:17;101067.38;;;13.94;44.38
54306;BME280;66145;45.188;5.712;2023-02-10T02:09:43;101110.88;;;14.30;44.54
54306;BME280;66145;45.188;5.712;2023-02-10T02:14:53;101148.63;;;14.50;44.31
54306;BME280;66145;45.188;5.712;2023-02-10T02:17:31;101137.97;;;14.49;44.42
54306;BME280;66145;45.188;5.712;2023-02-10T02:23:02;101093.16;;;14.15;44.25
54306;BME280;66145;45.188;5.712;2023-02-10T02:33:55;101050.00;;;13.83;44.34
54306;BME280;66145;45.188;5.712;2023-02-10T02:38:59;101141.16;;;14.45;44.43
54306;BME280;66145;45.188;5.712;2023-02-10T02:41:26;101144.25;;;14.49;44.63
54306;BME280;66145;45.188;5.712;2023-02-10T02:43:51;101105.94;;;14.27;44.39
54306;BME280;66145;45.188;5.712;2023-02-10T02:52:07;101091.13;;;14.23;44.45
54306;BME280;66145;45.188;5.712;2023-02-10T02:55:19;101132.75;;;14.47;44.45
54306;BME280;66145;45.188;5.712;2023-02-10T02:57:54;101130.84;;;14.48;44.38
54306;BME280;66145;45.188;5.712;2023-02-10T03:00:27;101103.78;;;14.29;44.10
54306;BME280;66145;45.188;5.712;2023-02-10T03:02:53;101095.25;;;14.25;44.33
54306;BME280;66145;45.188;5.712;2023-02-10T03:05:23;101080.97;;;14.18;44.14
54306;BME280;66145;45.188;5.712;2023-02-10T03:07:53;101131.69;;;14.48;44.55
54306;BME280;66145;45.188;5.712;2023-02-10T03:10:18;101130.03;;;14.47;44.69
54306;BME280;66145;45.188;5.712;2023-02-10T03:12:43;101111.25;;;14.34;44.66
54306;BME280;66145;45.188;5.712;2023-02-10T03:15:09;101097.66;;;14.22;44.34
54306;BME280;66145;45.188;5.712;2023-02-10T03:17:34;101142.81;;;14.47;44.37
54306;BME280;66145;45.188;5.712;2023-02-10T03:20:00;101133.56;;;14.48;44.15
54306;BME280;66145;45.188;5.712;2023-02-10T03:22:25;101079.41;;;14.22;44.29
54306;BME280;66145;45.188;5.712;2023-02-10T03:24:50;101114.19;;;14.44;44.49
54306;BME280;66145;45.188;5.712;2023-02-10T03:27:16;101086.75;;;14.22;44.43
54306;BME280;66145;45.188;5.712;2023-02-10T03:29:41;101090.06;;;14.24;44.31
54306;BME280;66145;45.188;5.712;2023-02-10T03:32:07;101106.88;;;14.33;43.98
54306;BME280;66145;45.188;5.712;2023-02-10T03:34:33;101125.66;;;14.46;44.34
54306;BME280;66145;45.188;5.712;2023-02-10T03:36:58;101115.50;;;14.41;44.21
54306;BME280;66145;45.188;5.712;2023-02-10T03:39:24;101121.53;;;14.43;44.46
54306;BME280;66145;45.188;5.712;2023-02-10T03:41:49;101124.59;;;14.47;44.32
54306;BME280;66145;45.188;5.712;2023-02-10T03:44:14;101125.88;;;14.44;44.31
54306;BME280;66145;45.188;5.712;2023-02-10T03:46:40;101084.16;;;14.15;44.15
54306;BME280;66145;45.188;5.712;2023-02-10T03:49:05;101132.75;;;14.47;44.40
54306;BME280;66145;45.188;5.712;2023-02-10T03:51:31;101144.47;;;14.48;44.25
54306;BME280;66145;45.188;5.712;2023-02-10T03:53:56;101106.41;;;14.24;44.45
54306;BME280;66145;45.188;5.712;2023-02-10T03:56:22;101055.09;;;13.92;44.44
54306;BME280;66145;45.188;5.712;2023-02-10T03:58:47;101089.59;;;14.15;44.17
54306;BME280;66145;45.188;5.712;2023-02-10T04:01:15;101125.56;;;14.29;44.22
54306;BME280;66145;45.188;5.712;2023-02-10T04:03:41;101100.38;;;14.22;44.07
54306;BME280;66145;45.188;5.712;2023-02-10T04:06:07;101113.50;;;14.25;44.21
54306;BME280;66145;45.188;5.712;2023-02-10T04:08:33;101115.72;;;14.28;44.11
54306;BME280;66145;45.188;5.712;2023-02-10T04:10:59;101140.22;;;14.40;44.34
54306;BME280;66145;45.188;5.712;2023-02-10T04:13:24;101145.44;;;14.41;44.07
54306;BME280;66145;45.188;5.712;2023-02-10T04:16:03;101134.19;;;14.38;44.17
54306;BME280;66145;45.188;5.712;2023-02-10T04:18:28;101125.06;;;14.32;44.02
54306;BME280;66145;45.188;5.712;2023-02-10T04:20:54;101144.84;;;14.39;43.93
54306;BME280;66145;45.188;5.712;2023-02-10T04:23:19;101145.78;;;14.33;44.40
54306;BME280;66145;45.188;5.712;2023-02-10T04:25:44;101152.19;;;14.39;44.29
54306;BME280;66145;45.188;5.712;2023-02-10T04:28:10;101165.66;;;14.45;44.21
54306;BME280;66145;45.188;5.712;2023-02-10T04:30:35;101154.09;;;14.38;44.20
54306;BME280;66145;45.188;5.712;2023-02-10T04:33:00;101153.63;;;14.41;44.18
54306;BME280;66145;45.188;5.712;2023-02-10T04:35:26;101103.34;;;14.08;44.00
54306;BME280;66145;45.188;5.712;2023-02-10T04:37:51;101159.66;;;14.43;44.43
54306;BME280;66145;45.188;5.712;2023-02-10T04:40:16;101104.16;;;14.09;44.26
54306;BME280;66145;45.188;5.712;2023-02-10T04:42:42;101140.59;;;14.32;44.57
54306;BME280;66145;45.188;5.712;2023-02-10T04:45:07;101164.84;;;14.45;44.27
54306;BME280;66145;45.188;5.712;2023-02-10T04:47:33;101154.09;;;14.38;44.15
54306;BME280;66145;45.188;5.712;2023-02-10T04:49:58;101127.59;;;14.22;44.09
54306;BME280;66145;45.188;5.712;2023-02-10T04:52:24;101162.38;;;14.43;44.00
54306;BME280;66145;45.188;5.712;2023-02-10T04:54:49;101130.66;;;14.25;44.37
54306;BME280;66145;45.188;5.712;2023-02-10T04:57:14;101071.53;;;13.85;44.27
54306;BME280;66145;45.188;5.712;2023-02-10T04:59:40;101165.91;;;14.44;44.23
54306;BME280;66145;45.188;5.712;2023-02-10T05:02:05;101161.53;;;14.43;44.25
54306;BME280;66145;45.188;5.712;2023-02-10T05:04:30;101129.47;;;14.21;44.18
54306;BME280;66145;45.188;5.712;2023-02-10T05:06:56;101135.63;;;14.28;44.11
54306;BME280;66145;45.188;5.712;2023-02-10T05:09:24;101127.59;;;14.22;44.16
54306;BME280;66145;45.188;5.712;2023-02-10T05:11:49;101160.72;;;14.42;44.01
54306;BME280;66145;45.188;5.712;2023-02-10T05:14:14;101153.75;;;14.35;44.53
54306;BME280;66145;45.188;5.712;2023-02-10T05:16:40;101144.50;;;14.24;44.15
54306;BME280;66145;45.188;5.712;2023-02-10T05:19:05;101085.72;;;13.87;44.21
54306;BME280;66145;45.188;5.712;2023-02-10T05:21:31;101168.88;;;14.42;43.99
54306;BME280;66145;45.188;5.712;2023-02-10T05:23:58;101135.16;;;14.20;43.94
54306;BME280;66145;45.188;5.712;2023-02-10T05:26:23;101134.09;;;14.21;44.18
54306;BME280;66145;45.188;5.712;2023-02-10T05:28:48;101179.53;;;14.44;44.35
54306;BME280;66145;45.188;5.712;2023-02-10T05:31:14;101121.78;;;14.06;44.17
54306;BME280;66145;45.188;5.712;2023-02-10T05:33:39;101173.38;;;14.37;44.36
54306;BME280;66145;45.188;5.712;2023-02-10T05:36:04;101141.66;;;14.19;44.07
54306;BME280;66145;45.188;5.712;2023-02-10T05:38:30;101142.38;;;14.14;44.14
54306;BME280;66145;45.188;5.712;2023-02-10T05:40:55;101179.19;;;14.40;44.11
54306;BME280;66145;45.188;5.712;2023-02-10T05:43:21;101088.78;;;13.79;44.36
54306;BME280;66145;45.188;5.712;2023-02-10T05:45:46;101101.81;;;13.89;43.84
54306;BME280;66145;45.188;5.712;2023-02-10T05:48:12;101099.34;;;13.87;44.40
54306;BME280;66145;45.188;5.712;2023-02-10T05:50:37;101109.97;;;13.89;44.07
54306;BME280;66145;45.188;5.712;2023-02-10T05:53:05;101163.19;;;14.20;44.12
54306;BME280;66145;45.188;5.712;2023-02-10T05:55:31;101182.50;;;14.30;44.18
54306;BME280;66145;45.188;5.712;2023-02-10T05:57:57;101178.00;;;14.24;44.00
54306;BME280;66145;45.188;5.712;2023-02-10T06:00:22;101180.25;;;14.27;43.90
54306;BME280;66145;45.188;5.712;2023-02-10T06:02:48;101192.06;;;14.33;44.30
54306;BME280;66145;45.188;5.712;2023-02-10T06:05:14;101175.16;;;14.19;44.09
54306;BME280;66145;45.188;5.712;2023-02-10T06:07:39;101193.59;;;14.29;44.15
54306;BME280;66145;45.188;5.712;2023-02-10T06:10:05;101203.31;;;14.37;43.89
54306;BME280;66145;45.188;5.712;2023-02-10T06:12:30;101200.84;;;14.35;44.32
54306;BME280;66145;45.188;5.712;2023-02-10T06:14:56;101186.16;;;14.24;44.02
54306;BME280;66145;45.188;5.712;2023-02-10T06:17:22;101124.88;;;13.86;44.03
54306;BME280;66145;45.188;5.712;2023-02-10T06:19:47;101137.75;;;13.91;44.08
54306;BME280;66145;45.188;5.712;2023-02-10T06:22:13;101195.97;;;14.25;44.00
54306;BME280;66145;45.188;5.712;2023-02-10T06:24:39;101196.22;;;14.24;44.19
54306;BME280;66145;45.188;5.712;2023-02-10T06:27:06;101186.28;;;14.18;44.18
54306;BME280;66145;45.188;5.712;2023-02-10T06:29:32;101212.78;;;14.34;44.06
54306;BME280;66145;45.188;5.712;2023-02-10T06:31:57;101205.81;;;14.26;44.15
54306;BME280;66145;45.188;5.712;2023-02-10T06:34:22;101220.25;;;14.39;43.88
54306;BME280;66145;45.188;5.712;2023-02-10T06:36:48;101233.03;;;14.38;43.88
54306;BME280;66145;45.188;5.712;2023-02-10T06:39:13;101199.28;;;14.15;44.05
54306;BME280;66145;45.188;5.712;2023-02-10T06:41:38;101220.59;;;14.30;44.21
54306;BME280;66145;45.188;5.712;2023-02-10T06:44:04;101230.78;;;14.35;44.10
54306;BME280;66145;45.188;5.712;2023-02-10T06:46:29;101192.69;;;14.11;44.25
54306;BME280;66145;45.188;5.712;2023-02-10T06:48:55;101235.63;;;14.33;44.10
54306;BME280;66145;45.188;5.712;2023-02-10T06:51:20;101204.50;;;14.17;44.31
54306;BME280;66145;45.188;5.712;2023-02-10T06:53:45;101180.72;;;14.01;44.27
54306;BME280;66145;45.188;5.712;2023-02-10T06:56:11;101224.50;;;14.23;44.19
54306;BME280;66145;45.188;5.712;2023-02-10T06:58:37;101240.94;;;14.28;44.00
54306;BME280;66145;45.188;5.712;2023-02-10T07:01:11;101242.97;;;14.33;43.98
54306;BME280;66145;45.188;5.712;2023-02-10T07:03:36;101234.94;;;14.26;44.05
54306;BME280;66145;45.188;5.712;2023-02-10T07:06:02;101235.16;;;14.24;44.37
54306;BME280;66145;45.188;5.712;2023-02-10T07:08:27;101232.69;;;14.23;44.08
54306;BME280;66145;45.188;5.712;2023-02-10T07:10:53;101211.59;;;14.06;44.27
54306;BME280;66145;45.188;5.712;2023-02-10T07:13:18;101254.69;;;14.33;43.91
54306;BME280;66145;45.188;5.712;2023-02-10T07:15:44;101246.63;;;14.26;43.99
54306;BME280;66145;45.188;5.712;2023-02-10T07:18:09;101234.66;;;14.15;44.43
54306;BME280;66145;45.188;5.712;2023-02-10T07:20:34;101254.56;;;14.28;43.85
54306;BME280;66145;45.188;5.712;2023-02-10T07:23:00;101260.13;;;14.33;44.00
54306;BME280;66145;45.188;5.712;2023-02-10T07:25:25;101266.28;;;14.28;44.23
54306;BME280;66145;45.188;5.712;2023-02-10T07:27:50;101268.09;;;14.35;44.25
54306;BME280;66145;45.188;5.712;2023-02-10T07:30:16;101255.66;;;14.27;44.20
54306;BME280;66145;45.188;5.712;2023-02-10T07:32:41;101275.41;;;14.34;43.84
54306;BME280;66145;45.188;5.712;2023-02-10T07:35:09;101232.41;;;14.12;43.88
54306;BME280;66145;45.188;5.712;2023-02-10T07:37:35;101186.97;;;13.77;43.96
54306;BME280;66145;45.188;5.712;2023-02-10T07:40:00;101284.41;;;14.35;43.92
54306;BME280;66145;45.188;5.712;2023-02-10T07:42:25;101240.81;;;14.11;43.92
54306;BME280;66145;45.188;5.712;2023-02-10T07:44:51;101282.75;;;14.34;44.03
54306;BME280;66145;45.188;5.712;2023-02-10T07:47:16;101247.31;;;14.10;44.03
54306;BME280;66145;45.188;5.712;2023-02-10T07:49:41;101255.38;;;14.17;43.90
54306;BME280;66145;45.188;5.712;2023-02-10T07:52:07;101268.56;;;14.32;43.88
54306;BME280;66145;45.188;5.712;2023-02-10T07:54:32;101286.53;;;14.44;44.12
54306;BME280;66145;45.188;5.712;2023-02-10T07:56:58;101268.91;;;14.35;43.90
54306;BME280;66145;45.188;5.712;2023-02-10T07:59:23;101268.91;;;14.35;44.08
54306;BME280;66145;45.188;5.712;2023-02-10T08:01:49;101290.22;;;14.50;43.92
54306;BME280;66145;45.188;5.712;2023-02-10T08:04:15;101248.31;;;14.27;43.88
54306;BME280;66145;45.188;5.712;2023-02-10T08:06:40;101256.47;;;14.27;43.47
54306;BME280;66145;45.188;5.712;2023-02-10T08:09:06;101258.59;;;14.25;43.66
54306;BME280;66145;45.188;5.712;2023-02-10T08:11:32;101253.00;;;14.20;43.80
54306;BME280;66145;45.188;5.712;2023-02-10T08:13:57;101289.50;;;14.43;43.56
54306;BME280;66145;45.188;5.712;2023-02-10T08:16:23;101253.84;;;14.21;43.77
54306;BME280;66145;45.188;5.712;2023-02-10T08:18:48;101291.88;;;14.39;43.84
54306;BME280;66145;45.188;5.712;2023-02-10T08:21:13;101261.66;;;14.17;43.83
54306;BME280;66145;45.188;5.712;2023-02-10T08:23:39;101296.72;;;14.37;43.93
54306;BME280;66145;45.188;5.712;2023-02-10T08:26:09;101261.41;;;14.19;43.63
54306;BME280;66145;45.188;5.712;2023-02-10T08:28:36;101252.06;;;14.14;43.69
54306;BME280;66145;45.188;5.712;2023-02-10T08:31:04;101258.09;;;14.17;43.68
54306;BME280;66145;45.188;5.712;2023-02-10T08:33:30;101267.47;;;14.21;43.86
54306;BME280;66145;45.188;5.712;2023-02-10T08:36:03;101292.59;;;14.35;43.67
54306;BME280;66145;45.188;5.712;2023-02-10T08:38:28;101274.22;;;14.18;43.58
54306;BME280;66145;45.188;5.712;2023-02-10T08:40:56;101276.94;;;14.18;43.58
54306;BME280;66145;45.188;5.712;2023-02-10T08:43:21;101222.44;;;13.82;43.68
54306;BME280;66145;45.188;5.712;2023-02-10T08:45:47;101297.44;;;14.33;43.93
54306;BME280;66145;45.188;5.712;2023-02-10T08:48:12;101278.22;;;14.15;43.83
54306;BME280;66145;45.188;5.712;2023-02-10T08:50:37;101271.81;;;14.10;43.65
54306;BME280;66145;45.188;5.712;2023-02-10T08:53:03;101303.09;;;14.31;43.93
54306;BME280;66145;45.188;5.712;2023-02-10T08:55:28;101309.13;;;14.33;43.86
54306;BME280;66145;45.188;5.712;2023-02-10T08:57:53;101300.38;;;14.31;43.71
54306;BME280;66145;45.188;5.712;2023-02-10T09:00:19;101292.44;;;14.18;44.18
54306;BME280;66145;45.188;5.712;2023-02-10T09:02:44;101260.56;;;14.06;43.64
54306;BME280;66145;45.188;5.712;2023-02-10T09:05:09;101269.09;;;14.10;43.96
54306;BME280;66145;45.188;5.712;2023-02-10T09:07:35;101271.81;;;14.10;44.13
54306;BME280;66145;45.188;5.712;2023-02-10T09:10:00;101302.28;;;14.30;43.89
54306;BME280;66145;45.188;5.712;2023-02-10T09:12:25;101253.13;;;14.02;43.85
54306;BME280;66145;45.188;5.712;2023-02-10T09:14:51;101284.41;;;14.23;43.89
54306;BME280;66145;45.188;5.712;2023-02-10T09:17:16;101274.69;;;14.15;43.99
54306;BME280;66145;45.188;5.712;2023-02-10T09:19:41;101279.41;;;14.20;43.92
54306;BME280;66145;45.188;5.712;2023-02-10T09:22:07;101228.81;;;13.88;44.00
54306;BME280;66145;45.188;5.712;2023-02-10T09:24:33;101294.31;;;14.29;44.03
54306;BME280;66145;45.188;5.712;2023-02-10T09:26:59;101283.78;;;14.21;44.00
54306;BME280;66145;45.188;5.712;2023-02-10T09:29:24;101213.56;;;13.75;44.07
54306;BME280;66145;45.188;5.712;2023-02-10T09:31:50;101224.94;;;13.84;43.56
54306;BME280;66145;45.188;5.712;2023-02-10T09:34:15;101209.19;;;13.74;44.34
54306;BME280;66145;45.188;5.712;2023-02-10T09:36:41;101278.00;;;14.17;44.20
54306;BME280;66145;45.188;5.712;2023-02-10T09:39:06;101227.19;;;13.87;44.03
54306;BME280;66145;45.188;5.712;2023-02-10T09:52:17;101289.13;;;14.27;43.88
54306;BME280;66145;45.188;5.712;2023-02-10T09:54:46;101272.16;;;14.13;43.75
54306;BME280;66145;45.188;5.712;2023-02-10T09:57:16;101282.94;;;14.20;43.80
54306;BME280;66145;45.188;5.712;2023-02-10T09:59:44;101293.50;;;14.28;43.85
54306;BME280;66145;45.188;5.712;2023-02-10T10:02:18;101266.03;;;14.06;43.87
54306;BME280;66145;45.188;5.712;2023-02-10T10:04:46;101283.19;;;14.19;43.96
54306;BME280;66145;45.188;5.712;2023-02-10T10:07:24;101254.50;;;13.92;43.86
54306;BME280;66145;45.188;5.712;2023-02-10T10:10:02;101290.91;;;14.22;43.85
54306;BME280;66145;45.188;5.712;2023-02-10T10:12:28;101288.53;;;14.25;43.45
54306;BME280;66145;45.188;5.712;2023-02-10T10:14:54;101293.06;;;14.32;43.80
54306;BME280;66145;45.188;5.712;2023-02-10T10:18:04;101306.91;;;14.42;43.72
54306;BME280;66145;45.188;5.712;2023-02-10T10:23:36;101270.19;;;14.21;43.59
54306;BME280;66145;45.188;5.712;2023-02-10T10:29:14;101301.47;;;14.42;43.38
54306;BME280;66145;45.188;5.712;2023-02-10T10:31:46;101284.88;;;14.32;43.36
54306;BME280;66145;45.188;5.712;2023-02-10T10:34:16;101304.03;;;14.37;43.29
54306;BME280;66145;45.188;5.712;2023-02-10T10:36:55;101283.78;;;14.21;43.33
54306;BME280;66145;45.188;5.712;2023-02-10T10:39:32;101309.03;;;14.40;43.73
54306;BME280;66145;45.188;5.712;2023-02-10T10:42:15;101290.78;;;14.28;43.37
54306;BME280;66145;45.188;5.712;2023-02-10T10:44:43;101304.53;;;14.34;43.41
54306;BME280;66145;45.188;5.712;2023-02-10T10:47:18;101270.06;;;14.15;43.19
54306;BME280;66145;45.188;5.712;2023-02-10T10:49:45;101301.31;;;14.37;43.39
54306;BME280;66145;45.188;5.712;2023-02-10T10:54:52;101265.44;;;14.16;43.47
54306;BME280;66145;45.188;5.712;2023-02-10T10:57:18;101257.50;;;14.14;43.43
54306;BME280;66145;45.188;5.712;2023-02-10T10:59:55;101304.03;;;14.37;43.66
54306;BME280;66145;45.188;5.712;2023-02-10T11:02:23;101299.31;;;14.32;43.50
54306;BME280;66145;45.188;5.712;2023-02-10T11:05:11;101290.44;;;14.37;43.41
54306;BME280;66145;45.188;5.712;2023-02-10T11:07:39;101258.56;;;14.13;43.30
54306;BME280;66145;45.188;5.712;2023-02-10T11:10:06;101292.81;;;14.33;43.77
54306;BME280;66145;45.188;5.712;2023-02-10T11:12:36;101294.47;;;14.34;43.45
54306;BME280;66145;45.188;5.712;2023-02-10T11:15:30;101273.50;;;14.23;43.34
54306;BME280;66145;45.188;5.712;2023-02-10T11:17:58;101253.38;;;14.12;43.68
54306;BME280;66145;45.188;5.712;2023-02-10T11:20:35;101289.88;;;14.35;43.76
54306;BME280;66145;45.188;5.712;2023-02-10T11:23:03;101291.53;;;14.36;43.51
54306;BME280;66145;45.188;5.712;2023-02-10T11:25:35;101286.09;;;14.36;43.62
54306;BME280;66145;45.188;5.712;2023-02-10T11:28:02;101262.28;;;14.19;43.58
54306;BME280;66145;45.188;5.712;2023-02-10T11:30:37;101269.47;;;14.25;43.93
54306;BME280;66145;45.188;5.712;2023-02-10T11:33:04;101267.47;;;14.21;43.38
54306;BME280;66145;45.188;5.712;2023-02-10T11:35:31;101256.56;;;14.21;43.80
54306;BME280;66145;45.188;5.712;2023-02-10T11:38:17;101286.28;;;14.34;43.77
54306;BME280;66145;45.188;5.712;2023-02-10T11:40:57;101291.75;;;14.34;43.48
54306;BME280;66145;45.188;5.712;2023-02-10T11:43:31;101246.41;;;14.16;43.60
54306;BME280;66145;45.188;5.712;2023-02-10T11:46:00;101269.16;;;14.34;43.57
54306;BME280;66145;45.188;5.712;2023-02-10T11:48:28;101235.97;;;14.13;43.84
54306;BME280;66145;45.188;5.712;2023-02-10T11:51:14;101235.25;;;14.18;43.58
54306;BME280;66145;45.188;5.712;2023-02-10T11:53:42;101255.53;;;14.34;43.78
54306;BME280;66145;45.188;5.712;2023-02-10T11:56:20;101247.38;;;14.34;43.64
54306;BME280;66145;45.188;5.712;2023-02-10T12:00:02;101200.47;;;14.08;43.48
54306;BME280;66145;45.188;5.712;2023-02-10T12:02:12;101234.44;;;14.29;43.88
54306;BME280;66145;45.188;5.712;2023-02-10T12:04:47;101231.84;;;14.34;43.57
54306;BME280;66145;45.188;5.712;2023-02-10T12:10:08;101217.41;;;14.34;43.64
54306;BME280;66145;45.188;5.712;2023-02-10T12:12:44;101222.03;;;14.33;43.93
54306;BME280;66145;45.188;5.712;2023-02-10T12:17:50;101219.09;;;14.35;43.49
54306;BME280;66145;45.188;5.712;2023-02-10T12:23:34;101204.63;;;14.34;43.55
54306;BME280;66145;45.188;5.712;2023-02-10T12:28:47;101203.81;;;14.34;43.57
54306;BME280;66145;45.188;5.712;2023-02-10T12:42:39;101197.31;;;14.35;43.72
54306;BME280;66145;45.188;5.712;2023-02-10T12:53:41;101178.47;;;14.33;43.69
54306;BME280;66145;45.188;5.712;2023-02-10T12:56:33;101185.34;;;14.36;43.78
54306;BME280;66145;45.188;5.712;2023-02-10T12:59:08;101186.16;;;14.36;43.62
54306;BME280;66145;45.188;5.712;2023-02-10T13:01:42;101126.75;;;13.97;43.78
54306;BME280;66145;45.188;5.712;2023-02-10T13:04:18;101151.16;;;14.16;43.80
54306;BME280;66145;45.188;5.712;2023-02-10T13:07:17;101184.03;;;14.38;43.84
54306;BME280;66145;45.188;5.712;2023-02-10T13:12:29;101145.78;;;14.21;43.59
54306;BME280;66145;45.188;5.712;2023-02-10T13:15:04;101175.88;;;14.38;43.53
54306;BME280;66145;45.188;5.712;2023-02-10T13:17:39;101164.25;;;14.31;43.87
54306;BME280;66145;45.188;5.712;2023-02-10T13:23:04;101167.69;;;14.38;43.75
54306;BME280;66145;45.188;5.712;2023-02-10T13:29:02;101182.97;;;14.39;43.84
54306;BME280;66145;45.188;5.712;2023-02-10T13:34:33;101159.28;;;14.28;43.58
54306;BME280;66145;45.188;5.712;2023-02-10T13:37:27;101172.91;;;14.40;43.91
54306;BME280;66145;45.188;5.712;2023-02-10T13:39:59;101153.03;;;14.27;43.79
54306;BME280;66145;45.188;5.712;2023-02-10T13:42:38;101132.09;;;14.16;43.72
54306;BME280;66145;45.188;5.712;2023-02-10T13:47:46;101152.91;;;14.34;43.81
54306;BME280;66145;45.188;5.712;2023-02-10T14:00:25;101150.28;;;14.39;43.78
54306;BME280;66145;45.188;5.712;2023-02-10T14:03:01;101150.88;;;14.41;43.80
54306;BME280;66145;45.188;5.712;2023-02-10T14:05:35;101146.72;;;14.39;43.78
54306;BME280;66145;45.188;5.712;2023-02-10T14:08:13;101071.28;;;13.87;43.90
54306;BME280;66145;45.188;5.712;2023-02-10T14:10:39;101143.06;;;14.33;44.02
54306;BME280;66145;45.188;5.712;2023-02-10T14:13:19;101048.25;;;13.77;44.03
54306;BME280;66145;45.188;5.712;2023-02-10T14:18:28;101110.06;;;14.18;44.11
54306;BME280;66145;45.188;5.712;2023-02-10T14:21:20;101150.03;;;14.41;43.67
54306;BME280;66145;45.188;5.712;2023-02-10T14:23:51;101078.13;;;14.01;43.59
54306;BME280;66145;45.188;5.712;2023-02-10T14:26:20;101152.78;;;14.41;43.91
54306;BME280;66145;45.188;5.712;2023-02-10T14:28:53;101146.25;;;14.42;43.97
54306;BME280;66145;45.188;5.712;2023-02-10T14:31:35;101118.22;;;14.18;43.67
54306;BME280;66145;45.188;5.712;2023-02-10T14:34:05;101114.19;;;14.20;43.81
54306;BME280;66145;45.188;5.712;2023-02-10T14:39:25;101150.88;;;14.41;43.83
54306;BME280;66145;45.188;5.712;2023-02-10T14:41:51;101127.72;;;14.27;43.95